Standon, United Kingdom
Current Conditions -  °F | °C
As of 10:50 AM on Saturday 20 Dec 2014 (Local Time) from EGOS Reporting Station
Broken Clouds Broken Clouds  
Wind Chill: 40°   Ceiling: 4100
Heat Index: 46°   Visibility: 6mi
Dew Point: 39°   Wind: 14mph
Humidity: 76%   Direction: 280°W
Pressure: 30.24"   Gusts: NA
Location:  52.92°N, 2.28°W
Report Text: EGOS 201050Z AUTO 28012KT 9999 BKN041/// 08/04 Q1024
Loading
Personal Weather Stations






























Interactive Weather Map New forecast layout! Learn more

10-Day Weather Forecast

Advertisements
Track Severe Weather on mobile